CW9769 Weather Reports


Display with metric or nautical units.
time (UTC)temp
F
wind
direction
speed
MPH
gust
MPH
rain 1hr
in
rain 24hr
in
rain mn
in
humidity
%
barometer
mb
20240530040827 47 7 0.0 0.0 0.00 0.73 0.00 81 1020.2
20240530035826 48 7 0.0 2.0 0.00 0.73 0.73 82 1020.1
20240530034754 48 7 0.0 2.0 0.00 0.73 0.73 78 1019.8
20240530033754 48 7 1.0 1.0 0.00 0.73 0.73 77 1019.8
20240530032753 49 7 0.0 1.0 0.00 0.73 0.73 77 1019.8
20240530031752 50 7 0.0 1.0 0.00 0.73 0.73 75 1019.9
20240530030720 50 7 1.0 1.0 0.00 0.73 0.73 71 1019.6
20240530025719 51 7 0.0 1.0 0.00 0.73 0.73 70 1019.6
20240530024719 52 7 1.0 2.0 0.00 0.73 0.73 68 1019.6
20240530023737 52 7 1.0 3.0 0.00 0.73 0.73 66 1019.6
20240530022923 53 39 1.0 4.0 0.00 0.73 0.73 64 1019.6
20240530021922 53 62 2.0 4.0 0.00 0.73 0.73 63 1019.3
20240530020922 53 66 1.0 6.0 0.00 0.73 0.73 62 1019.3
20240530015920 54 50 2.0 6.0 0.00 0.73 0.73 61 1019.3
20240530014919 54 64 3.0 6.0 0.00 0.73 0.73 60 1019.3
20240530013918 55 59 4.0 9.0 0.00 0.73 0.73 59 1019.4
20240530012916 55 53 4.0 10.0 0.00 0.73 0.73 59 1019.0
20240530011915 55 47 6.0 12.0 0.00 0.73 0.73 59 1019.0
20240530010915 56 57 7.0 11.0 0.00 0.73 0.73 61 1019.0
20240530005914 56 49 6.0 11.0 0.00 0.73 0.73 63 1019.1
20240530004913 56 45 4.0 8.0 0.00 0.73 0.73 62 1019.4
20240530003912 57 70 4.0 11.0 0.00 0.73 0.73 60 1019.4
20240530002912 57 59 6.0 12.0 0.00 0.73 0.73 60 1019.4
20240530001911 58 58 4.0 15.0 0.00 0.73 0.73 59 1019.5
20240530000910 59 49 6.0 17.0 0.00 0.73 0.73 56 1019.5
20240529235910 59 60 8.0 17.0 0.00 0.73 0.73 57 1019.5
20240529234909 60 44 9.0 15.0 0.00 0.73 0.73 61 1019.2
20240529233909 60 44 8.0 18.0 0.00 0.73 0.73 63 1019.2
20240529232836 61 64 10.0 18.0 0.00 0.73 0.73 64 1018.9
20240529231836 60 45 8.0 15.0 0.00 0.73 0.73 68 1018.9
20240529230835 60 53 10.0 18.0 0.00 0.73 0.73 67 1018.9
20240529225834 61 56 10.0 18.0 0.00 0.73 0.73 66 1018.9
20240529224833 61 52 9.0 17.0 0.00 0.73 0.73 66 1018.6
20240529223832 62 49 10.0 17.0 0.00 0.73 0.73 72 1018.6
20240529222831 61 49 10.0 22.0 0.00 0.73 0.73 76 1018.6
20240529221830 61 56 8.0 18.0 0.00 0.73 0.73 75 1018.6
20240529220757 61 51 10.0 18.0 0.00 0.73 0.73 75 1018.6
20240529215756 62 49 11.0 19.0 0.00 0.73 0.73 75 1018.3
20240529214725 63 63 9.0 19.0 0.00 0.73 0.73 74 1018.3
20240529213724 63 40 8.0 20.0 0.00 0.73 0.73 76 1018.0
20240529212723 63 67 9.0 20.0 0.00 0.73 0.73 75 1018.0
20240529211549 63 62 7.0 16.0 0.00 0.73 0.73 76 1018.0
20240529210517 64 39 10.0 16.0 0.00 0.73 0.73 76 1018.0
20240529205414 64 39 11.0 16.0 0.00 0.73 0.73 78 1018.0
20240529204414 64 34 10.0 18.0 0.04 0.73 0.73 78 1017.7
20240529203413 64 42 9.0 19.0 0.04 0.73 0.73 81 1017.4
20240529202411 64 23 13.0 19.0 0.04 0.73 0.73 84 1017.3
20240529201411 63 22 10.0 12.0 0.04 0.73 0.73 86 1017.3
20240529200410 62 20 9.0 18.0 0.04 0.73 0.73 84 1017.3
20240529195409 63 7 10.0 22.0 0.04 0.73 0.73 77 1017.3
20240529194408 65 33 11.0 22.0 0.00 0.69 0.69 73 1017.3
20240529193407 65 41 12.0 23.0 0.00 0.69 0.69 73 1017.4
20240529192406 66 45 10.0 23.0 0.00 0.69 0.69 70 1017.1
20240529191406 66 28 13.0 19.0 0.00 0.69 0.69 71 1017.1
20240529190405 66 40 11.0 17.0 0.00 0.69 0.69 73 1017.1
20240529185333 66 37 10.0 23.0 0.00 0.69 0.69 72 1016.7
20240529184332 65 56 11.0 23.0 0.00 0.69 0.69 74 1016.7
20240529183331 65 14 11.0 16.0 0.00 0.69 0.69 78 1016.7
20240529182259 64 31 11.0 15.0 0.00 0.69 0.69 78 1016.7
20240529181258 64 11 9.0 16.0 0.00 0.69 0.69 80 1016.6
20240529180257 63 9 11.0 17.0 0.00 0.69 0.69 82 1017.0
20240529175257 62 12 10.0 17.0 0.00 0.69 0.69 86 1016.9
20240529174256 62 13 10.0 16.0 0.00 0.69 0.69 85 1016.9
20240529173255 62 350 10.0 16.0 0.00 0.69 0.69 89 1016.9
20240529172254 61 346 8.0 13.0 0.00 0.69 0.69 90 1016.9
20240529171253 60 357 6.0 12.0 0.00 0.69 0.69 92 1016.9
20240529170252 59 334 6.0 12.0 0.00 0.69 0.69 92 1016.9
20240529165220 60 319 5.0 8.0 0.00 0.69 0.69 93 1016.9
20240529164219 59 317 6.0 8.0 0.01 0.69 0.69 93 1016.9
20240529163147 59 325 5.0 8.0 0.01 0.69 0.69 92 1016.9
20240529162044 58 300 4.0 8.0 0.10 0.69 0.69 94 1016.9
20240529161043 57 300 4.0 7.0 0.27 0.69 0.69 93 1016.8
20240529160011 56 286 3.0 4.0 0.39 0.69 0.69 93 1016.8
20240529155011 56 297 2.0 4.0 0.40 0.69 0.69 92 1016.8
20240529154010 56 286 2.0 4.0 0.41 0.68 0.68 91 1016.8
20240529153009 56 311 1.0 5.0 0.43 0.67 0.67 91 1016.8
20240529152008 56 344 1.0 8.0 0.36 0.57 0.57 92 1016.5
20240529151008 57 1 6.0 7.0 0.20 0.40 0.40 92 1016.5
20240529145904 57 33 3.0 8.0 0.10 0.30 0.30 92 1016.2
20240529144904 57 27 4.0 8.0 0.10 0.29 0.29 92 1016.2
20240529143903 57 41 4.0 9.0 0.10 0.26 0.26 92 1015.9
20240529142831 57 49 6.0 10.0 0.08 0.23 0.23 92 1015.9
20240529141830 57 39 5.0 10.0 0.07 0.21 0.21 92 1015.9
20240529140829 57 65 5.0 8.0 0.08 0.20 0.20 92 1015.9
20240529135829 57 53 3.0 5.0 0.08 0.20 0.20 92 1015.6
20240529134757 57 38 3.0 5.0 0.07 0.19 0.19 92 1015.5
20240529133756 57 55 3.0 4.0 0.04 0.16 0.16 92 1015.5
20240529132755 57 44 3.0 6.0 0.04 0.15 0.15 92 1015.5
20240529131754 56 50 2.0 8.0 0.05 0.14 0.14 92 1015.5
20240529130754 56 12 3.0 8.0 0.06 0.12 0.12 92 1015.2
20240529125721 56 14 4.0 6.0 0.09 0.12 0.12 92 1015.2
20240529124721 56 5 4.0 7.0 0.10 0.12 0.12 92 1015.2
20240529123720 56 16 4.0 8.0 0.10 0.12 0.12 91 1015.2
20240529122719 56 42 3.0 8.0 0.08 0.10 0.10 91 1014.9
20240529121718 57 43 4.0 6.0 0.07 0.08 0.08 91 1014.9
20240529120718 57 55 1.0 3.0 0.05 0.06 0.06 92 1014.6
20240529115717 57 55 1.0 4.0 0.03 0.03 0.03 91 1014.6
20240529114543 57 55 2.0 4.0 0.02 0.02 0.02 92 1014.3
20240529113542 56 55 2.0 2.0 0.02 0.02 0.02 91 1014.3
20240529112541 56 55 1.0 2.0 0.01 0.01 0.01 92 1014.3
20240529111540 56 55 1.0 2.0 0.01 0.01 0.01 92 1013.9
20240529110540 56 55 1.0 3.0 0.01 0.01 0.01 92 1013.9
20240529105539 56 53 2.0 4.0 0.00 0.00 0.00 92 1014.0
20240529104538 56 39 2.0 4.0 0.00 0.00 0.00 91 1014.0
20240529103537 56 36 2.0 4.0 0.00 0.00 0.00 91 1014.0
20240529102536 56 46 2.0 4.0 0.00 0.00 0.00 91 1013.6
20240529101504 56 80 1.0 2.0 0.00 0.00 0.00 91 1013.7
20240529100504 56 28 1.0 2.0 0.00 0.00 0.00 91 1013.7
20240529095503 56 45 0.0 4.0 0.00 0.00 0.00 91 1013.7
20240529094502 56 45 1.0 5.0 0.00 0.00 0.00 91 1013.7
20240529093501 56 34 3.0 5.0 0.00 0.00 0.00 91 1013.7
20240529092501 56 12 3.0 4.0 0.00 0.00 0.00 91 1013.7
20240529091500 56 258 1.0 5.0 0.00 0.00 0.00 91 1013.8
20240529090459 56 264 3.0 5.0 0.00 0.00 0.00 91 1013.8
20240529085459 56 243 3.0 5.0 0.00 0.00 0.00 91 1013.8
20240529084458 56 267 3.0 4.0 0.00 0.00 0.00 91 1013.8
20240529083457 56 327 2.0 3.0 0.00 0.00 0.00 91 1013.8
20240529082456 56 327 1.0 3.0 0.00 0.00 0.00 91 1013.8
20240529081456 56 327 1.0 3.0 0.00 0.00 0.00 91 1013.8
20240529080455 55 318 2.0 3.0 0.00 0.00 0.00 91 1013.8
20240529075454 55 33 1.0 2.0 0.00 0.00 0.00 90 1013.4
20240529074453 55 33 0.0 1.0 0.00 0.00 0.00 90 1013.5
20240529073421 55 33 0.0 0.0 0.00 0.00 0.00 90 1013.4
20240529072318 55 33 0.0 0.0 0.00 0.00 0.00 90 1013.4
20240529071215 56 33 0.0 2.0 0.00 0.00 0.00 90 1013.4
20240529070215 56 33 0.0 2.0 0.00 0.00 0.00 90 1013.4
20240529065214 56 33 0.0 1.0 0.00 0.00 0.00 90 1013.7
20240529064213 55 33 1.0 1.0 0.00 0.00 0.00 90 1013.4
20240529063141 55 346 0.0 0.0 0.00 0.00 0.00 90 1013.8
20240529062140 55 346 0.0 0.0 0.00 0.00 0.00 89 1013.8
20240529061109 55 346 0.0 0.0 0.00 0.00 0.00 89 1013.7
20240529060108 55 346 0.0 0.0 0.00 0.00 0.00 89 1013.8
20240529055036 56 346 0.0 0.0 0.00 0.00 0.00 89 1013.8
20240529054035 56 346 0.0 0.0 0.00 0.00 0.00 89 1014.1
20240529053034 55 346 0.0 0.0 0.00 0.00 0.00 89 1014.1
20240529052033 56 346 0.0 1.0 0.00 0.00 0.00 88 1014.1
20240529051032 56 346 1.0 2.0 0.00 0.00 0.00 88 1014.1
20240529050032 56 346 1.0 2.0 0.00 0.00 0.00 87 1014.1
20240529045031 56 274 0.0 3.0 0.00 0.00 0.00 87 1014.5
20240529044030 57 261 2.0 3.0 0.00 0.00 0.00 87 1014.2
20240529043029 57 88 1.0 3.0 0.00 0.00 0.00 87 1014.1
20240529042029 57 88 1.0 3.0 0.00 0.00 0.00 87 1014.1